KGLW/GLW METAR and TAF weather

Enter ICAO airport designator
Station Type Date Time Source
KGLW METAR 2021/05/14 03:55 UTC NOAA

KGLW 140355Z AUTO 00000KT 10SM BKN090 08/05 A3030 RMK AO2 T00760048 402000050


Station Type Date Time Source
KGLW Decoded METAR 2021/05/14 03:55 UTC NOAA

Glasgow, Glasgow Municipal Airport, KY, United States (KGLW) 37-01-54N 085-57-13W
May 13, 2021 - 11:55 PM EDT / 2021.05.14 0355 UTC
Wind: Calm:0
Visibility: 10 mile(s):0
Sky conditions: mostly cloudy
Temperature: 45.7 F (7.6 C)
Dew Point: 40.6 F (4.8 C)
Relative Humidity: 82%
Pressure (altimeter): 30.3 in. Hg (1026 hPa)
ob: KGLW 140355Z AUTO 00000KT 10SM BKN090 08/05 A3030 RMK AO2 T00760048 402000050
cycle: 4

Station Type Date Time Source
KGLW TAF UTC NOAA

Error!

Example: see airport list